Time;durP1;ratioP1;P1;durP2;ratioP2;P2;SDS_P1;SDS_P2;PMS_P1;PMS_P2;Temp;Humidity;BMP_temperature;BMP_pressure;BME280_temperature;BME280_humidity;BME280_pressure;Samples;Min_cycle;Max_cycle;Signal;HPM_P1;HPM_P2
2022/01/20 00:03:24;;;;;;;9.17;4.30;;;;;;;5.85;35.48;98513.38;5112311;28;20090;-62
2022/01/20 00:27:52;;;;;;;8.03;4.83;;;;;;;5.68;35.58;98487.88;5112298;28;20100;-60
2022/01/20 00:30:38;;;;;;;9.77;5.00;;;;;;;5.90;35.57;98465.50;5112171;28;20035;-59
2022/01/20 00:38:22;;;;;;;9.73;4.83;;;;;;;6.38;35.50;98484.16;5113246;28;20043;-60
2022/01/20 00:40:50;;;;;;;8.77;4.77;;;;;;;6.07;35.57;98483.88;5110161;28;20721;-62
2022/01/20 00:43:15;;;;;;;12.53;5.37;;;;;;;6.07;35.56;98486.50;5111744;28;20039;-62
2022/01/20 00:45:41;;;;;;;10.03;4.80;;;;;;;6.02;35.53;98454.50;5111944;28;20050;-60
2022/01/20 00:48:07;;;;;;;10.70;4.57;;;;;;;6.34;35.18;98464.34;5094331;28;20132;-59
2022/01/20 00:50:35;;;;;;;10.57;4.87;;;;;;;6.17;35.64;98460.84;5111589;28;20081;-60
2022/01/20 00:53:02;;;;;;;11.37;4.97;;;;;;;6.59;35.55;98472.19;5111961;28;20071;-57
2022/01/20 00:55:27;;;;;;;9.97;4.63;;;;;;;6.64;34.83;98492.81;5094789;28;20048;-57
2022/01/20 00:57:53;;;;;;;8.23;4.87;;;;;;;6.45;35.55;98488.63;5112772;28;20113;-60
2022/01/20 01:00:19;;;;;;;11.67;5.10;;;;;;;6.16;35.59;98472.38;5110447;28;20047;-60
2022/01/20 01:02:45;;;;;;;9.97;5.00;;;;;;;6.74;34.80;98420.44;5110932;28;20065;-61
2022/01/20 01:05:12;;;;;;;10.50;4.77;;;;;;;6.70;35.46;98450.75;5112491;28;20047;-60
2022/01/20 01:07:51;;;;;;;11.50;4.60;;;;;;;6.34;35.81;98443.25;5093828;28;20047;-59
2022/01/20 01:10:26;;;;;;;11.50;5.13;;;;;;;7.25;35.21;98434.28;5112377;28;20049;-60
2022/01/20 01:13:11;;;;;;;8.73;4.73;;;;;;;6.93;35.07;98446.50;5112169;28;20109;-59
2022/01/20 01:15:45;;;;;;;9.40;4.80;;;;;;;7.00;34.88;98435.25;5112039;28;20138;-60
2022/01/20 01:23:38;;;;;;;14.33;4.77;;;;;;;7.65;34.31;98447.44;5111981;28;20138;-59
2022/01/20 01:26:15;;;;;;;9.30;4.77;;;;;;;7.32;34.97;98419.44;5110679;28;20055;-60
2022/01/20 01:28:42;;;;;;;12.67;4.77;;;;;;;7.06;34.81;98435.44;5110613;28;20039;-60
2022/01/20 01:33:59;;;;;;;14.13;4.60;;;;;;;7.14;34.51;98424.06;5110595;28;20576;-60
2022/01/20 01:36:28;;;;;;;11.13;5.00;;;;;;;7.33;33.83;98439.56;5110578;28;20118;-61
2022/01/20 01:38:55;;;;;;;12.40;5.70;;;;;;;7.51;33.95;98419.91;5093944;28;20044;-60
2022/01/20 01:41:34;;;;;;;10.70;4.93;;;;;;;7.63;34.19;98396.56;5110586;28;20088;-60
2022/01/20 01:44:05;;;;;;;19.23;5.50;;;;;;;6.81;35.00;98423.25;5110815;28;20058;-61
2022/01/20 01:46:31;;;;;;;10.25;5.38;;;;;;;6.79;35.07;98460.34;5112445;28;20075;-60
2022/01/20 01:48:57;;;;;;;14.83;5.40;;;;;;;7.04;34.86;98426.06;5094081;28;20063;-60
2022/01/20 01:51:24;;;;;;;12.53;5.83;;;;;;;7.04;35.19;98410.22;5110277;28;20055;-58
2022/01/20 01:53:50;;;;;;;12.10;5.57;;;;;;;6.75;35.41;98400.13;5093092;28;20035;-60
2022/01/20 01:56:16;;;;;;;11.33;5.37;;;;;;;6.62;35.49;98444.66;5093047;28;20054;-60
2022/01/20 01:58:42;;;;;;;11.20;5.50;;;;;;;6.53;35.78;98403.41;5110160;28;20040;-61
2022/01/20 02:01:14;;;;;;;13.87;5.53;;;;;;;6.66;35.24;98375.56;5093019;28;20122;-61
2022/01/20 02:03:57;;;;;;;13.27;5.53;;;;;;;6.77;35.35;98406.91;5109978;28;20570;-57
2022/01/20 02:20:23;;;;;;;11.87;4.90;;;;;;;7.09;35.09;98381.50;5054698;28;20080;-61
2022/01/20 02:23:01;;;;;;;9.23;5.00;;;;;;;6.72;35.77;98369.63;5109711;28;20062;-59
2022/01/20 02:25:34;;;;;;;11.95;5.97;;;;;;;7.20;35.71;98389.06;5093408;28;20419;-60
2022/01/20 02:28:03;;;;;;;12.30;5.47;;;;;;;7.21;35.36;98377.53;5109814;28;20048;-59
2022/01/20 02:30:30;;;;;;;11.43;5.80;;;;;;;7.38;34.81;98408.19;5109593;28;20361;-61
2022/01/20 02:33:20;;;;;;;11.33;5.17;;;;;;;7.62;34.98;98389.66;5109619;28;20497;-60
2022/01/20 02:35:54;;;;;;;12.55;5.43;;;;;;;8.00;34.52;98383.56;5092725;28;20150;-60
2022/01/20 02:38:55;;;;;;;10.23;5.00;;;;;;;6.67;35.68;98377.22;5093654;28;20491;-61
2022/01/20 02:46:42;;;;;;;14.27;5.47;;;;;;;6.82;35.35;98393.22;5109423;28;20051;-61
2022/01/20 02:49:13;;;;;;;11.70;6.17;;;;;;;7.44;35.41;98349.41;5092776;28;20036;-62
2022/01/20 02:51:47;;;;;;;13.73;6.37;;;;;;;7.59;34.94;98359.13;5110015;28;20071;-63
2022/01/20 02:54:14;;;;;;;12.47;5.53;;;;;;;6.85;35.30;98369.97;5092817;28;20501;-59
2022/01/20 02:56:40;;;;;;;14.70;5.20;;;;;;;6.70;36.34;98362.88;5109187;28;20135;-63
2022/01/20 02:59:06;;;;;;;12.50;6.10;;;;;;;6.46;35.88;98305.66;5109521;28;20054;-58
2022/01/20 03:01:32;;;;;;;11.20;5.87;;;;;;;6.97;35.62;98335.31;5109269;28;20051;-60
2022/01/20 03:04:00;;;;;;;12.17;5.97;;;;;;;6.59;35.92;98336.81;5092151;28;20047;-60
2022/01/20 03:06:26;;;;;;;13.77;6.53;;;;;;;6.83;35.71;98320.97;5109323;28;20042;-56
2022/01/20 03:08:52;;;;;;;13.27;5.97;;;;;;;7.16;35.50;98319.13;5092134;28;20120;-61
2022/01/20 03:11:18;;;;;;;9.20;5.63;;;;;;;6.78;36.02;98326.75;5109016;28;20062;-57
2022/01/20 03:13:44;;;;;;;13.00;6.17;;;;;;;6.88;36.03;98321.31;5109124;28;20492;-59
2022/01/20 03:16:10;;;;;;;10.27;5.60;;;;;;;7.00;35.65;98295.38;5110588;28;20077;-60
2022/01/20 03:18:36;;;;;;;15.67;6.70;;;;;;;6.88;35.99;98300.19;5109423;28;20142;-57
2022/01/20 03:21:01;;;;;;;12.53;5.80;;;;;;;6.88;35.84;98330.06;5110222;28;20043;-58
2022/01/20 03:23:27;;;;;;;11.43;6.07;;;;;;;7.10;35.65;98335.63;5092049;28;20047;-59
2022/01/20 03:25:53;;;;;;;13.70;5.80;;;;;;;7.09;35.52;98310.25;5112825;28;20032;-60
2022/01/20 03:28:20;;;;;;;11.17;5.60;;;;;;;6.98;35.96;98331.69;5112595;28;20050;-59
2022/01/20 03:30:49;;;;;;;11.10;5.77;;;;;;;7.31;35.55;98327.97;5096401;28;20525;-59
2022/01/20 03:33:15;;;;;;;10.60;5.73;;;;;;;7.32;35.97;98319.91;5095947;28;20054;-60
2022/01/20 03:35:42;;;;;;;14.97;6.30;;;;;;;6.93;35.94;98320.81;5095696;28;20111;-63
2022/01/20 03:38:26;;;;;;;11.83;5.80;;;;;;;6.82;36.47;98301.72;5113099;28;20035;-60
2022/01/20 03:40:54;;;;;;;18.20;6.70;;;;;;;6.96;36.39;98307.28;5112316;28;20066;-61
2022/01/20 03:43:20;;;;;;;11.60;6.17;;;;;;;7.02;36.61;98306.59;5112513;28;20493;-63
2022/01/20 03:45:54;;;;;;;11.70;6.90;;;;;;;7.04;36.45;98320.47;5112614;28;20044;-58
2022/01/20 03:48:20;;;;;;;13.83;6.90;;;;;;;6.74;37.08;98324.63;5112843;28;20502;-60
2022/01/20 03:50:59;;;;;;;16.27;7.07;;;;;;;6.98;36.29;98271.78;5095788;28;20402;-56
2022/01/20 03:53:36;;;;;;;14.40;7.13;;;;;;;7.31;36.38;98281.28;5112523;28;20503;-60
2022/01/20 03:56:03;;;;;;;17.47;7.43;;;;;;;7.29;36.36;98309.66;5112575;28;20105;-60
2022/01/20 03:58:40;;;;;;;19.03;7.20;;;;;;;6.72;37.07;98308.97;5112798;28;20042;-57
2022/01/20 04:01:11;;;;;;;10.65;5.85;;;;;;;6.78;36.75;98302.22;5095603;28;20074;-57
2022/01/20 04:03:57;;;;;;;15.43;7.10;;;;;;;7.07;36.40;98306.94;5105441;28;20050;-59
2022/01/20 04:06:37;;;;;;;15.30;7.40;;;;;;;7.13;36.31;98283.34;5094915;28;20526;-60
2022/01/20 04:09:04;;;;;;;16.13;7.80;;;;;;;7.18;36.84;98312.66;5113349;28;20246;-61
2022/01/20 04:11:30;;;;;;;17.40;7.33;;;;;;;7.09;36.80;98294.41;5112011;28;20043;-60
2022/01/20 04:13:57;;;;;;;17.43;8.53;;;;;;;7.01;36.48;98303.16;5113057;28;20066;-60
2022/01/20 04:16:36;;;;;;;19.33;7.47;;;;;;;7.76;36.23;98299.09;5111550;28;20056;-61
2022/01/20 04:19:08;;;;;;;16.53;7.47;;;;;;;7.74;36.25;98303.72;5077681;28;20054;-59
2022/01/20 04:21:35;;;;;;;15.20;7.97;;;;;;;7.64;36.41;98276.69;5094589;28;20570;-60
2022/01/20 04:24:03;;;;;;;14.33;7.20;;;;;;;7.47;36.27;98306.81;5094476;28;20062;-57
2022/01/20 04:26:30;;;;;;;16.13;8.20;;;;;;;7.45;36.24;98292.94;5111493;28;20449;-58
2022/01/20 04:28:57;;;;;;;18.70;8.27;;;;;;;7.46;35.80;98295.41;5111445;28;20101;-60
2022/01/20 04:31:29;;;;;;;19.93;8.47;;;;;;;7.49;36.69;98299.56;5111464;28;20423;-60
2022/01/20 04:33:58;;;;;;;21.77;8.07;;;;;;;7.08;37.10;98285.66;5106232;28;20075;-59
2022/01/20 04:36:31;;;;;;;16.67;7.57;;;;;;;7.33;36.88;98279.31;5109294;28;20131;-61
2022/01/20 04:39:00;;;;;;;16.03;8.13;;;;;;;7.16;37.23;98269.78;5093072;28;20100;-60
2022/01/20 04:41:29;;;;;;;20.80;9.17;;;;;;;7.29;36.96;98254.22;5110126;28;20556;-58
2022/01/20 04:43:57;;;;;;;17.73;8.07;;;;;;;7.50;36.84;98254.47;5109967;28;20039;-60
2022/01/20 04:46:39;;;;;;;20.00;8.70;;;;;;;6.89;37.66;98257.81;5109393;28;20047;-59
2022/01/20 04:57:21;;;;;;;18.00;8.40;;;;;;;6.91;37.60;98278.75;5110570;28;20369;-58
2022/01/20 04:59:51;;;;;;;19.30;9.43;;;;;;;7.91;36.91;98253.25;5090836;28;20040;-60
2022/01/20 05:02:19;;;;;;;18.90;9.07;;;;;;;7.16;36.94;98240.75;5107716;28;20054;-65
2022/01/20 05:04:51;;;;;;;24.97;9.67;;;;;;;7.19;37.12;98258.88;5108028;28;20149;-65
2022/01/20 05:07:29;;;;;;;21.00;9.67;;;;;;;7.42;36.53;98251.88;5107170;28;20035;-66
2022/01/20 05:09:57;;;;;;;21.67;9.33;;;;;;;7.38;36.67;98273.50;5107888;28;20043;-65
2022/01/20 05:12:31;;;;;;;22.73;9.77;;;;;;;7.08;37.00;98245.22;5108166;28;20047;-67
2022/01/20 05:14:58;;;;;;;23.80;9.60;;;;;;;7.24;36.94;98261.00;5094706;28;20069;-65
2022/01/20 05:17:24;;;;;;;24.53;9.50;;;;;;;7.10;36.74;98240.59;5109330;28;20043;-65
2022/01/20 05:19:54;;;;;;;22.90;9.63;;;;;;;6.83;37.39;98232.09;5110831;28;20044;-64
2022/01/20 05:22:20;;;;;;;24.93;9.73;;;;;;;7.34;37.22;98259.81;5109878;28;20051;-65
2022/01/20 05:24:53;;;;;;;21.27;9.13;;;;;;;6.65;37.93;98284.25;5109476;28;20040;-65
2022/01/20 05:27:20;;;;;;;33.20;9.47;;;;;;;7.61;37.00;98255.91;5092265;28;20042;-65
2022/01/20 05:29:45;;;;;;;24.70;10.00;;;;;;;7.21;37.10;98251.59;5111200;28;20035;-63
2022/01/20 05:32:14;;;;;;;28.20;10.70;;;;;;;7.12;36.97;98213.03;5076250;28;20051;-65
2022/01/20 05:34:41;;;;;;;32.97;10.53;;;;;;;7.26;37.13;98222.06;5093761;28;20138;-66
2022/01/20 05:37:07;;;;;;;21.43;9.40;;;;;;;7.14;37.10;98234.81;5092984;28;20043;-65
2022/01/20 05:39:33;;;;;;;23.70;9.80;;;;;;;7.27;37.31;98240.38;5092942;28;20078;-65
2022/01/20 05:41:59;;;;;;;24.73;9.93;;;;;;;7.30;37.18;98242.69;5092206;28;20491;-64
2022/01/20 05:44:42;;;;;;;22.33;9.40;;;;;;;7.26;37.23;98244.00;5094037;28;20036;-66
2022/01/20 05:47:11;;;;;;;26.73;9.90;;;;;;;6.98;37.49;98239.31;5108060;28;20040;-65
2022/01/20 05:49:55;;;;;;;23.63;9.07;;;;;;;6.86;37.78;98218.56;5093467;28;20047;-65
2022/01/20 05:52:22;;;;;;;25.47;10.10;;;;;;;7.28;37.46;98249.94;5090099;28;20127;-65
2022/01/20 05:54:48;;;;;;;25.10;10.73;;;;;;;7.66;36.89;98235.88;5107301;28;20397;-66
2022/01/20 05:57:14;;;;;;;22.03;9.33;;;;;;;7.20;37.29;98247.31;5091214;28;20623;-65
2022/01/20 05:59:48;;;;;;;20.83;9.27;;;;;;;6.91;37.47;98220.69;5091902;28;20558;-65
2022/01/20 06:02:31;;;;;;;16.93;8.77;;;;;;;6.72;37.96;98245.63;5109244;28;20052;-65
2022/01/20 06:04:58;;;;;;;28.90;10.80;;;;;;;6.88;37.96;98206.03;5109350;28;20047;-65
2022/01/20 06:07:23;;;;;;;22.63;10.13;;;;;;;7.12;37.46;98217.50;5108754;28;20414;-65
2022/01/20 06:09:49;;;;;;;24.67;9.00;;;;;;;7.35;37.02;98258.00;5109349;28;20127;-65
2022/01/20 06:12:15;;;;;;;24.20;10.67;;;;;;;7.41;36.90;98217.72;5109105;28;20040;-64
2022/01/20 06:14:41;;;;;;;20.03;9.43;;;;;;;7.56;36.57;98227.38;5091659;28;20043;-65
2022/01/20 06:17:07;;;;;;;26.43;10.60;;;;;;;7.68;36.04;98231.25;5109950;28;20544;-65
2022/01/20 06:19:33;;;;;;;19.47;9.07;;;;;;;7.59;36.41;98229.66;5109165;28;20051;-65
2022/01/20 06:21:59;;;;;;;25.17;9.47;;;;;;;7.53;36.28;98218.97;5089036;28;20040;-65
2022/01/20 06:24:25;;;;;;;23.73;9.60;;;;;;;7.48;36.31;98192.22;5109174;28;20035;-69
2022/01/20 06:26:51;;;;;;;22.43;9.43;;;;;;;7.53;36.20;98216.31;5107749;28;20131;-65
2022/01/20 06:29:16;;;;;;;20.57;9.77;;;;;;;7.26;36.69;98211.50;5107604;28;20043;-64
2022/01/20 06:31:44;;;;;;;24.57;10.10;;;;;;;7.35;36.47;98229.75;5107668;28;20514;-64
2022/01/20 06:34:10;;;;;;;35.13;10.63;;;;;;;7.40;36.56;98234.53;5107529;28;20039;-66
2022/01/20 06:36:36;;;;;;;19.17;8.80;;;;;;;7.10;36.95;98227.41;5070866;28;20054;-64
2022/01/20 06:39:03;;;;;;;22.17;9.70;;;;;;;7.01;37.34;98191.47;5107311;28;20035;-64
2022/01/20 06:41:35;;;;;;;21.73;9.77;;;;;;;7.14;36.85;98221.59;5106884;28;20031;-65
2022/01/20 06:44:01;;;;;;;29.83;10.33;;;;;;;7.26;36.80;98211.50;5087720;28;20109;-65
2022/01/20 06:46:27;;;;;;;30.10;11.40;;;;;;;6.99;37.19;98206.66;5107414;28;20432;-64
2022/01/20 06:49:00;;;;;;;25.77;10.13;;;;;;;7.27;36.78;98229.81;5104902;28;20059;-67
2022/01/20 06:51:35;;;;;;;29.07;11.03;;;;;;;7.32;36.67;98216.09;5107265;28;20035;-71
2022/01/20 06:54:03;;;;;;;25.30;9.77;;;;;;;7.52;36.87;98235.81;5107329;28;20039;-64
2022/01/20 06:56:31;;;;;;;34.73;10.63;;;;;;;7.02;37.52;98219.50;5106984;28;20072;-64
2022/01/20 06:58:57;;;;;;;27.27;10.60;;;;;;;7.26;37.01;98232.63;5106565;28;20043;-64
2022/01/20 07:01:23;;;;;;;31.83;11.30;;;;;;;7.19;36.92;98194.69;5090986;28;20047;-63
2022/01/20 07:03:51;;;;;;;28.23;10.20;;;;;;;7.32;36.96;98213.47;5109015;28;20128;-64
2022/01/20 07:06:18;;;;;;;33.40;10.63;;;;;;;6.83;37.44;98218.91;5108416;28;20500;-71
2022/01/20 07:09:22;;;;;;;26.63;10.63;;;;;;;7.26;37.18;98230.78;5046216;28;20045;-66
2022/01/20 07:11:53;;;;;;;29.50;10.00;;;;;;;7.17;37.38;98210.72;5014185;28;20044;-64
2022/01/20 07:14:20;;;;;;;36.43;10.10;;;;;;;7.28;37.27;98239.38;5061026;28;20120;-66
2022/01/20 07:16:48;;;;;;;24.57;9.20;;;;;;;7.14;37.27;98239.25;5108330;28;20051;-64
2022/01/20 07:19:15;;;;;;;24.63;9.77;;;;;;;7.14;37.39;98191.72;5108152;28;20123;-64
2022/01/20 07:21:42;;;;;;;25.70;10.53;;;;;;;7.55;37.04;98222.25;5108144;28;20579;-65
2022/01/20 07:24:11;;;;;;;29.30;10.63;;;;;;;7.24;37.07;98214.31;5091481;28;20521;-65
2022/01/20 07:26:37;;;;;;;31.33;12.03;;;;;;;7.18;37.28;98199.13;5107754;28;20278;-67
2022/01/20 07:29:21;;;;;;;27.63;10.07;;;;;;;7.43;36.61;98194.56;5093489;28;20043;-67
2022/01/20 07:31:47;;;;;;;25.23;10.40;;;;;;;7.54;36.65;98197.66;5074773;28;20073;-65
2022/01/20 07:34:13;;;;;;;34.33;10.93;;;;;;;7.45;36.70;98192.59;5074203;28;20036;-65
2022/01/20 07:36:39;;;;;;;26.60;11.50;;;;;;;7.33;37.11;98188.69;5090686;28;20036;-65
2022/01/20 07:39:05;;;;;;;21.13;9.90;;;;;;;7.23;37.11;98194.19;5108068;28;20043;-66
2022/01/20 07:41:31;;;;;;;28.23;10.83;;;;;;;7.61;37.02;98200.44;5074443;28;20047;-65
2022/01/20 07:44:02;;;;;;;28.27;11.10;;;;;;;7.47;37.20;98196.72;5084509;28;20048;-65
2022/01/20 07:46:54;;;;;;;28.33;11.03;;;;;;;7.37;36.91;98208.47;5107155;28;20438;-65
2022/01/20 07:49:19;;;;;;;23.07;9.80;;;;;;;7.48;36.74;98193.06;5090822;28;20050;-69
2022/01/20 07:51:46;;;;;;;26.33;10.70;;;;;;;7.25;37.01;98164.97;5085512;28;20479;-66
2022/01/20 07:54:12;;;;;;;25.03;10.17;;;;;;;6.98;37.55;98200.53;5070221;28;20047;-65
2022/01/20 07:56:38;;;;;;;27.17;10.93;;;;;;;7.47;37.04;98199.34;5070782;28;20040;-65
2022/01/20 07:59:06;;;;;;;22.50;10.13;;;;;;;7.62;36.54;98210.00;5087401;28;20048;-66
2022/01/20 08:01:35;;;;;;;21.17;9.20;;;;;;;7.48;36.79;98176.38;5070981;28;20044;-65
2022/01/20 08:04:06;;;;;;;24.47;11.00;;;;;;;7.55;36.74;98230.19;5086395;28;20487;-66
2022/01/20 08:06:33;;;;;;;21.37;9.57;;;;;;;7.77;36.47;98224.09;5070438;28;20404;-65
2022/01/20 08:09:09;;;;;;;23.07;9.50;;;;;;;7.08;37.08;98181.88;5054053;28;20127;-67
2022/01/20 08:11:55;;;;;;;25.43;10.70;;;;;;;7.14;37.54;98171.44;5090594;28;20044;-67
2022/01/20 08:14:30;;;;;;;16.37;8.40;;;;;;;7.26;37.19;98244.00;5090763;28;20044;-65
2022/01/20 08:16:56;;;;;;;21.37;9.53;;;;;;;7.32;37.37;98229.31;5096869;28;20088;-65
2022/01/20 08:19:22;;;;;;;16.63;8.03;;;;;;;7.34;36.88;98219.38;5075474;28;20512;-65
2022/01/20 08:21:48;;;;;;;22.40;8.97;;;;;;;7.64;36.71;98203.53;5094216;28;20078;-65
2022/01/20 08:24:14;;;;;;;22.03;9.07;;;;;;;7.78;36.41;98221.28;5111112;28;20051;-65
2022/01/20 08:26:41;;;;;;;20.87;8.50;;;;;;;8.09;36.30;98181.56;5094126;28;20695;-65
2022/01/20 08:29:06;;;;;;;23.00;9.87;;;;;;;7.74;36.40;98193.56;5060233;28;20039;-66
2022/01/20 08:31:32;;;;;;;21.80;9.17;;;;;;;7.28;37.40;98186.56;5093626;28;20407;-65
2022/01/20 08:34:07;;;;;;;19.33;8.27;;;;;;;6.98;37.41;98178.63;5110686;28;20126;-65
2022/01/20 08:36:55;;;;;;;17.53;8.90;;;;;;;7.16;37.68;98173.91;5093254;28;20423;-65
2022/01/20 08:39:44;;;;;;;18.70;8.70;;;;;;;7.43;37.81;98157.59;5110743;28;20043;-69
2022/01/20 08:42:09;;;;;;;20.13;9.10;;;;;;;7.47;37.42;98199.34;5095096;28;20043;-64
2022/01/20 08:44:35;;;;;;;16.80;9.00;;;;;;;7.79;36.67;98142.81;5110237;28;20053;-65
2022/01/20 08:47:03;;;;;;;18.17;8.70;;;;;;;7.99;36.47;98181.00;5111483;28;20058;-67
2022/01/20 08:49:29;;;;;;;22.03;9.13;;;;;;;7.71;36.77;98150.81;5105296;28;20067;-66
2022/01/20 08:51:57;;;;;;;15.97;7.43;;;;;;;7.55;36.76;98206.41;5110460;28;20044;-65
2022/01/20 08:54:27;;;;;;;18.60;9.35;;;;;;;7.44;36.73;98144.22;5110911;28;20078;-64
2022/01/20 08:57:04;;;;;;;18.83;8.67;;;;;;;7.59;36.57;98173.34;5110533;28;20466;-68
2022/01/20 08:59:32;;;;;;;22.20;9.70;;;;;;;7.46;37.04;98167.81;5094207;28;20118;-67
2022/01/20 09:01:58;;;;;;;15.70;8.60;;;;;;;7.60;36.49;98127.44;5093179;28;20047;-65
2022/01/20 09:04:23;;;;;;;19.90;8.97;;;;;;;7.50;36.33;98089.88;5110496;28;20036;-66
2022/01/20 09:07:12;;;;;;;13.73;7.17;;;;;;;7.29;37.01;98108.19;5094294;28;20093;-65
2022/01/20 09:09:43;;;;;;;17.20;7.70;;;;;;;7.35;37.15;98160.31;5093469;28;20047;-65
2022/01/20 09:17:23;;;;;;;14.73;7.50;;;;;;;7.42;36.77;98140.13;5104404;28;20135;-67
2022/01/20 09:19:49;;;;;;;15.73;7.83;;;;;;;7.50;36.75;98095.16;5110193;28;20126;-66
2022/01/20 09:22:16;;;;;;;11.30;6.47;;;;;;;7.04;37.26;98143.63;5091362;28;20039;-65
2022/01/20 09:24:44;;;;;;;15.37;7.00;;;;;;;7.29;37.02;98110.84;5109885;28;20036;-68
2022/01/20 09:27:10;;;;;;;13.87;6.53;;;;;;;7.40;37.37;98107.75;5093260;28;20542;-64
2022/01/20 09:29:36;;;;;;;14.00;7.43;;;;;;;7.06;37.17;98091.50;5109807;28;20131;-64
2022/01/20 09:32:07;;;;;;;17.27;7.40;;;;;;;7.73;36.44;98091.53;5092978;28;20043;-65
2022/01/20 09:34:34;;;;;;;14.33;7.23;;;;;;;7.60;36.51;98116.88;5093386;28;20106;-65
2022/01/20 09:37:00;;;;;;;12.90;7.47;;;;;;;7.89;36.19;98080.78;5093046;28;20067;-64
2022/01/20 09:39:26;;;;;;;15.37;7.60;;;;;;;7.48;36.68;98184.31;5092854;28;20226;-65
2022/01/20 09:42:08;;;;;;;12.30;6.80;;;;;;;7.58;36.53;98068.69;5108791;28;20507;-64
2022/01/20 09:44:35;;;;;;;13.10;7.23;;;;;;;7.80;36.72;98112.75;5059585;28;20036;-64
2022/01/20 09:47:03;;;;;;;16.70;7.33;;;;;;;7.62;36.54;98054.13;5075587;28;20039;-65
2022/01/20 09:49:48;;;;;;;9.50;5.47;;;;;;;7.65;36.17;98078.38;5110850;28;20055;-64
2022/01/20 09:52:24;;;;;;;13.90;7.67;;;;;;;7.46;36.48;98099.97;5093146;28;20415;-67
2022/01/20 09:54:57;;;;;;;15.73;7.43;;;;;;;7.33;36.99;98056.66;5093474;28;20046;-66
2022/01/20 09:57:23;;;;;;;18.20;8.10;;;;;;;7.90;36.35;98057.84;5092206;28;20426;-67
2022/01/20 09:59:50;;;;;;;12.53;6.53;;;;;;;7.50;36.48;98105.72;5072725;28;20106;-65
2022/01/20 10:02:18;;;;;;;14.80;6.57;;;;;;;7.32;36.99;98092.00;5094407;28;20526;-65
2022/01/20 10:04:47;;;;;;;15.48;7.47;;;;;;;7.39;36.95;98050.66;5109679;28;20039;-65
2022/01/20 10:07:36;;;;;;;11.47;6.70;;;;;;;7.35;36.97;98086.38;5095134;28;20047;-64
2022/01/20 10:10:13;;;;;;;13.30;7.10;;;;;;;7.77;36.53;98057.63;5109019;28;20071;-64
2022/01/20 10:13:07;;;;;;;12.03;6.77;;;;;;;8.45;35.89;98079.44;5108095;28;20046;-65
2022/01/20 10:15:57;;;;;;;11.90;6.43;;;;;;;8.31;36.16;98038.78;5094711;28;20058;-65
2022/01/20 10:18:53;;;;;;;11.33;6.47;;;;;;;8.42;36.00;98046.25;5093176;28;20062;-64
2022/01/20 10:21:37;;;;;;;13.57;5.77;;;;;;;8.19;36.04;98044.66;5108599;28;20057;-71
2022/01/20 10:24:32;;;;;;;11.37;6.40;;;;;;;7.76;36.62;98045.41;5071899;28;20105;-64
2022/01/20 10:27:13;;;;;;;11.77;6.73;;;;;;;8.74;35.63;98050.31;5109595;28;20047;-65
2022/01/20 10:30:04;;;;;;;10.23;5.73;;;;;;;8.63;35.68;98061.38;5105240;28;20043;-65
2022/01/20 10:32:46;;;;;;;11.63;6.53;;;;;;;8.58;35.81;98069.84;5091383;28;20100;-64
2022/01/20 10:35:15;;;;;;;14.37;6.57;;;;;;;8.30;36.26;98054.81;5091926;28;20048;-65
2022/01/20 10:37:57;;;;;;;13.03;6.93;;;;;;;8.42;36.05;98056.84;5109035;28;20138;-64
2022/01/20 10:40:23;;;;;;;15.37;7.87;;;;;;;7.54;36.85;98033.03;5109455;28;20063;-69
2022/01/20 10:42:55;;;;;;;15.77;7.17;;;;;;;7.70;36.07;98068.09;5090245;28;20476;-64
2022/01/20 10:45:24;;;;;;;14.73;6.87;;;;;;;7.63;36.75;98090.09;5109032;28;20047;-64
2022/01/20 10:47:55;;;;;;;15.80;8.00;;;;;;;8.13;36.68;98058.59;5108495;28;20400;-64
2022/01/20 10:50:27;;;;;;;16.30;7.93;;;;;;;8.07;36.63;98059.34;5108735;28;20047;-65
2022/01/20 10:52:58;;;;;;;20.20;7.87;;;;;;;7.77;36.49;98065.53;5093090;28;20043;-65
2022/01/20 10:55:30;;;;;;;14.90;7.77;;;;;;;8.20;36.17;98072.72;5108941;28;20040;-66
2022/01/20 10:58:11;;;;;;;16.80;7.83;;;;;;;8.12;36.21;98027.84;5091401;28;20398;-65
2022/01/20 11:00:46;;;;;;;14.37;8.30;;;;;;;8.01;36.74;98083.84;5074367;28;20594;-65
2022/01/20 11:03:14;;;;;;;17.10;8.27;;;;;;;8.01;36.68;98044.19;5107765;28;20612;-65
2022/01/20 11:05:44;;;;;;;14.70;7.57;;;;;;;7.91;36.60;98051.53;5090602;28;20445;-69
2022/01/20 11:08:13;;;;;;;18.33;8.57;;;;;;;8.19;36.28;98034.09;5075059;28;20134;-64
2022/01/20 11:10:41;;;;;;;16.90;7.87;;;;;;;7.68;36.85;98051.59;5107220;28;20047;-64
2022/01/20 11:13:45;;;;;;;17.93;8.03;;;;;;;7.76;36.98;98082.41;5080514;28;20495;-68
2022/01/20 11:16:12;;;;;;;17.37;8.20;;;;;;;7.96;36.63;98046.53;5089301;28;20510;-64
2022/01/20 11:18:42;;;;;;;15.83;7.53;;;;;;;7.43;36.97;98044.84;5070399;28;20031;-64
2022/01/20 11:21:08;;;;;;;13.93;7.00;;;;;;;7.60;36.75;98040.25;5104751;28;20130;-65
2022/01/20 11:23:42;;;;;;;13.65;7.30;;;;;;;8.30;36.49;98052.19;5089149;28;20039;-65
2022/01/20 11:26:54;;;;;;;13.13;6.60;;;;;;;8.29;36.50;98030.19;5032505;28;20036;-67
2022/01/20 11:29:50;;;;;;;11.40;6.53;;;;;;;8.23;36.33;98065.28;5071627;28;20048;-65
2022/01/20 11:32:35;;;;;;;15.97;8.50;;;;;;;7.79;36.37;98023.91;5073405;28;20043;-65
2022/01/20 11:35:21;;;;;;;11.47;7.00;;;;;;;7.80;36.25;98007.88;5086610;28;20123;-66
2022/01/20 11:37:57;;;;;;;19.83;7.07;;;;;;;8.75;35.42;98048.50;5088761;28;20044;-65
2022/01/20 11:40:24;;;;;;;15.70;7.37;;;;;;;7.87;36.59;98051.06;5087841;28;20044;-72
2022/01/20 11:43:07;;;;;;;16.70;7.57;;;;;;;8.52;35.55;98024.78;5087551;28;20044;-65
2022/01/20 11:45:39;;;;;;;19.40;8.63;;;;;;;8.68;35.39;98071.41;5088833;28;20082;-68
2022/01/20 11:48:15;;;;;;;14.30;8.00;;;;;;;8.91;35.18;98037.69;5106968;28;20514;-66
2022/01/20 11:50:43;;;;;;;17.03;7.97;;;;;;;8.19;35.54;98036.72;5090742;28;20051;-66
2022/01/20 11:53:19;;;;;;;20.37;9.47;;;;;;;9.01;34.84;98036.38;5057444;28;20088;-66
2022/01/20 11:55:50;;;;;;;16.10;8.80;;;;;;;8.74;35.11;98049.47;5072125;28;20116;-67
2022/01/20 11:58:19;;;;;;;14.95;8.00;;;;;;;8.67;35.34;98012.38;5107834;28;20452;-64
2022/01/20 12:01:06;;;;;;;14.73;7.43;;;;;;;8.59;35.38;98038.94;5089281;28;20040;-66
2022/01/20 12:03:34;;;;;;;15.87;7.20;;;;;;;8.21;35.79;98018.88;5090240;28;20071;-65
2022/01/20 12:06:24;;;;;;;15.10;7.53;;;;;;;8.14;35.93;98031.16;5090913;28;20491;-65
2022/01/20 12:09:01;;;;;;;13.40;6.57;;;;;;;8.56;35.55;98052.53;5059489;28;20051;-63
2022/01/20 12:11:53;;;;;;;17.20;7.30;;;;;;;8.66;35.07;98047.75;5090343;28;20044;-74
2022/01/20 12:14:32;;;;;;;14.43;7.33;;;;;;;8.70;35.43;98008.53;5088908;28;20040;-75
2022/01/20 12:17:07;;;;;;;14.43;7.63;;;;;;;8.68;35.27;98029.06;5056341;28;20047;-80
2022/01/20 12:19:34;;;;;;;18.23;8.47;;;;;;;8.42;35.27;98013.69;5077626;28;20088;-79
2022/01/20 12:22:02;;;;;;;13.77;7.13;;;;;;;8.71;35.23;98045.41;5078298;28;20046;-80
2022/01/20 12:24:28;;;;;;;10.90;7.00;;;;;;;8.32;35.12;98039.56;5111541;28;20389;-79
2022/01/20 12:26:54;;;;;;;12.17;7.00;;;;;;;8.09;35.43;98015.84;5061023;28;20104;-70
2022/01/20 12:29:20;;;;;;;13.53;7.07;;;;;;;8.11;35.39;98023.59;5064792;28;20093;-82
2022/01/20 12:31:51;;;;;;;11.90;7.03;;;;;;;8.25;35.10;98013.06;5042865;28;20097;-79
2022/01/20 12:34:19;;;;;;;13.73;7.70;;;;;;;8.58;35.19;98027.53;5085019;28;20071;-81
2022/01/20 12:36:56;;;;;;;15.50;8.27;;;;;;;8.47;35.25;98008.66;5070400;28;20040;-80
2022/01/20 12:39:28;;;;;;;15.97;7.80;;;;;;;8.32;35.82;98034.28;5075113;28;20192;-79
2022/01/20 12:42:20;;;;;;;15.03;8.80;;;;;;;8.69;35.48;98013.00;5091100;28;20040;-71
2022/01/20 12:45:55;;;;;;;17.60;7.93;;;;;;;7.80;36.30;97989.38;5053807;28;20105;-79
2022/01/20 12:47:51;;;;;;;16.57;7.23;;;;;;;8.01;35.91;98013.28;5062555;28;20036;-78
2022/01/20 12:50:17;;;;;;;13.93;8.07;;;;;;;7.70;36.36;97978.28;5056656;28;20055;-78
2022/01/20 12:52:50;;;;;;;13.37;7.87;;;;;;;8.12;36.30;98007.53;5062002;28;20047;-78
2022/01/20 12:55:20;;;;;;;16.00;8.13;;;;;;;7.89;37.02;97985.66;5093937;28;20042;-80
2022/01/20 12:57:46;;;;;;;16.73;9.00;;;;;;;7.82;36.27;98026.19;5076329;28;20503;-78
2022/01/20 13:00:12;;;;;;;16.13;7.67;;;;;;;7.78;36.37;98025.72;5077357;28;20039;-76
2022/01/20 13:02:38;;;;;;;17.27;8.43;;;;;;;7.65;36.77;97987.72;5071458;28;20044;-80